Allenspark, Colorado
Current Conditions -  °F | °C
As of 8:37 PM on Sunday 23 Nov 2014 (Local Time) from KBDU Reporting Station
Clear Clear  
Wind Chill: 27°   Ceiling: Unl
Heat Index: 32°   Visibility: 10mi
Dew Point: 10°   Wind: 5mph
Humidity: 41%   Direction: 240°WSW
Pressure: 29.88"   Gusts: NA
Location:  40.19°N, 105.53°W
Report Text: KBDU 240337Z AUTO 24004KT 10SM CLR 00/M12 A2988 RMK AO2
Loading
Personal Weather Stations






























Interactive Weather Map New forecast layout! Learn more

10-Day Weather Forecast

Advertisements
Track Severe Weather on mobile